sensor_id;sensor_type;location;lat;lon;timestamp;temperature;humidity
67502;SHT30;54349;52.528;19.760;2023-04-25T00:01:51;24.97;43.85
67502;SHT30;54349;52.528;19.760;2023-04-25T00:04:20;24.95;43.80
67502;SHT30;54349;52.528;19.760;2023-04-25T00:06:49;24.93;43.77
67502;SHT30;54349;52.528;19.760;2023-04-25T00:09:17;24.92;43.71
67502;SHT30;54349;52.528;19.760;2023-04-25T00:11:45;24.91;43.71
67502;SHT30;54349;52.528;19.760;2023-04-25T00:14:13;24.89;43.68
67502;SHT30;54349;52.528;19.760;2023-04-25T00:16:42;24.87;43.66
67502;SHT30;54349;52.528;19.760;2023-04-25T00:19:11;24.86;43.60
67502;SHT30;54349;52.528;19.760;2023-04-25T00:21:41;24.84;43.60
67502;SHT30;54349;52.528;19.760;2023-04-25T00:24:09;24.82;43.57
67502;SHT30;54349;52.528;19.760;2023-04-25T00:26:37;24.81;43.58
67502;SHT30;54349;52.528;19.760;2023-04-25T00:29:05;24.80;43.58
67502;SHT30;54349;52.528;19.760;2023-04-25T00:31:34;24.77;43.50
67502;SHT30;54349;52.528;19.760;2023-04-25T00:34:02;24.76;43.51
67502;SHT30;54349;52.528;19.760;2023-04-25T00:36:30;24.74;43.50
67502;SHT30;54349;52.528;19.760;2023-04-25T00:38:59;24.72;43.48
67502;SHT30;54349;52.528;19.760;2023-04-25T00:41:27;24.71;43.49
67502;SHT30;54349;52.528;19.760;2023-04-25T00:43:55;24.69;43.50
67502;SHT30;54349;52.528;19.760;2023-04-25T00:46:25;24.67;43.49
67502;SHT30;54349;52.528;19.760;2023-04-25T00:48:53;24.66;43.47
67502;SHT30;54349;52.528;19.760;2023-04-25T00:51:22;24.64;43.46
67502;SHT30;54349;52.528;19.760;2023-04-25T00:53:52;24.63;43.44
67502;SHT30;54349;52.528;19.760;2023-04-25T00:56:21;24.61;43.44
67502;SHT30;54349;52.528;19.760;2023-04-25T00:58:49;24.60;43.45
67502;SHT30;54349;52.528;19.760;2023-04-25T01:01:24;24.59;43.44
67502;SHT30;54349;52.528;19.760;2023-04-25T01:03:52;24.57;43.41
67502;SHT30;54349;52.528;19.760;2023-04-25T01:06:23;24.56;43.43
67502;SHT30;54349;52.528;19.760;2023-04-25T01:08:51;24.54;43.43
67502;SHT30;54349;52.528;19.760;2023-04-25T01:11:19;24.53;43.41
67502;SHT30;54349;52.528;19.760;2023-04-25T01:13:47;24.51;43.40
67502;SHT30;54349;52.528;19.760;2023-04-25T01:16:16;24.50;43.40
67502;SHT30;54349;52.528;19.760;2023-04-25T01:18:45;24.49;43.41
67502;SHT30;54349;52.528;19.760;2023-04-25T01:21:14;24.47;43.42
67502;SHT30;54349;52.528;19.760;2023-04-25T01:23:42;24.45;43.41
67502;SHT30;54349;52.528;19.760;2023-04-25T01:26:11;24.43;43.43
67502;SHT30;54349;52.528;19.760;2023-04-25T01:28:40;24.41;43.43
67502;SHT30;54349;52.528;19.760;2023-04-25T01:31:11;24.40;43.44
67502;SHT30;54349;52.528;19.760;2023-04-25T01:33:40;24.38;43.42
67502;SHT30;54349;52.528;19.760;2023-04-25T01:36:08;24.36;43.41
67502;SHT30;54349;52.528;19.760;2023-04-25T01:38:37;24.35;43.43
67502;SHT30;54349;52.528;19.760;2023-04-25T01:41:06;24.33;43.44
67502;SHT30;54349;52.528;19.760;2023-04-25T01:43:35;24.32;43.46
67502;SHT30;54349;52.528;19.760;2023-04-25T01:46:03;24.31;43.48
67502;SHT30;54349;52.528;19.760;2023-04-25T01:48:32;24.30;43.45
67502;SHT30;54349;52.528;19.760;2023-04-25T01:51:00;24.29;43.47
67502;SHT30;54349;52.528;19.760;2023-04-25T01:53:29;24.27;43.48
67502;SHT30;54349;52.528;19.760;2023-04-25T01:55:59;24.25;43.48
67502;SHT30;54349;52.528;19.760;2023-04-25T01:58:32;24.24;43.50
67502;SHT30;54349;52.528;19.760;2023-04-25T02:01:06;24.24;43.49
67502;SHT30;54349;52.528;19.760;2023-04-25T02:03:39;24.22;43.49
67502;SHT30;54349;52.528;19.760;2023-04-25T02:06:15;24.20;43.49
67502;SHT30;54349;52.528;19.760;2023-04-25T02:08:45;24.20;43.50
67502;SHT30;54349;52.528;19.760;2023-04-25T02:11:13;24.18;43.48
67502;SHT30;54349;52.528;19.760;2023-04-25T02:13:48;24.16;43.48
67502;SHT30;54349;52.528;19.760;2023-04-25T02:16:25;24.15;43.51
67502;SHT30;54349;52.528;19.760;2023-04-25T02:18:53;24.14;43.50
67502;SHT30;54349;52.528;19.760;2023-04-25T02:21:22;24.14;43.50
67502;SHT30;54349;52.528;19.760;2023-04-25T02:23:50;24.12;43.50
67502;SHT30;54349;52.528;19.760;2023-04-25T02:26:20;24.10;43.50
67502;SHT30;54349;52.528;19.760;2023-04-25T02:28:51;24.10;43.50
67502;SHT30;54349;52.528;19.760;2023-04-25T02:31:19;24.08;43.50
67502;SHT30;54349;52.528;19.760;2023-04-25T02:33:47;24.07;43.51
67502;SHT30;54349;52.528;19.760;2023-04-25T02:36:17;24.06;43.51
67502;SHT30;54349;52.528;19.760;2023-04-25T02:38:45;24.05;43.50
67502;SHT30;54349;52.528;19.760;2023-04-25T02:41:13;24.04;43.51
67502;SHT30;54349;52.528;19.760;2023-04-25T02:43:41;24.04;43.50
67502;SHT30;54349;52.528;19.760;2023-04-25T02:46:09;24.03;43.51
67502;SHT30;54349;52.528;19.760;2023-04-25T02:48:39;24.02;43.51
67502;SHT30;54349;52.528;19.760;2023-04-25T02:51:09;24.00;43.51
67502;SHT30;54349;52.528;19.760;2023-04-25T02:53:37;23.99;43.52
67502;SHT30;54349;52.528;19.760;2023-04-25T02:56:05;23.97;43.52
67502;SHT30;54349;52.528;19.760;2023-04-25T02:58:33;23.96;43.53
67502;SHT30;54349;52.528;19.760;2023-04-25T03:01:02;23.93;43.56
67502;SHT30;54349;52.528;19.760;2023-04-25T03:03:30;23.91;43.58
67502;SHT30;54349;52.528;19.760;2023-04-25T03:05:59;23.88;43.59
67502;SHT30;54349;52.528;19.760;2023-04-25T03:08:29;23.86;43.57
67502;SHT30;54349;52.528;19.760;2023-04-25T03:11:00;23.84;43.60
67502;SHT30;54349;52.528;19.760;2023-04-25T03:13:29;23.82;43.59
67502;SHT30;54349;52.528;19.760;2023-04-25T03:15:57;23.79;43.60
67502;SHT30;54349;52.528;19.760;2023-04-25T03:18:26;23.78;43.60
67502;SHT30;54349;52.528;19.760;2023-04-25T03:20:54;23.76;43.60
67502;SHT30;54349;52.528;19.760;2023-04-25T03:23:24;23.75;43.60
67502;SHT30;54349;52.528;19.760;2023-04-25T03:25:53;23.73;43.59
67502;SHT30;54349;52.528;19.760;2023-04-25T03:28:24;23.70;43.60
67502;SHT30;54349;52.528;19.760;2023-04-25T03:30:53;23.69;43.60
67502;SHT30;54349;52.528;19.760;2023-04-25T03:33:21;23.68;43.60
67502;SHT30;54349;52.528;19.760;2023-04-25T03:35:49;23.66;43.60
67502;SHT30;54349;52.528;19.760;2023-04-25T03:38:18;23.64;43.59
67502;SHT30;54349;52.528;19.760;2023-04-25T03:40:46;23.64;43.57
67502;SHT30;54349;52.528;19.760;2023-04-25T03:43:19;23.62;43.58
67502;SHT30;54349;52.528;19.760;2023-04-25T03:45:54;23.60;43.59
67502;SHT30;54349;52.528;19.760;2023-04-25T03:48:23;23.59;43.58
67502;SHT30;54349;52.528;19.760;2023-04-25T03:50:54;23.56;43.59
67502;SHT30;54349;52.528;19.760;2023-04-25T03:53:23;23.56;43.60
67502;SHT30;54349;52.528;19.760;2023-04-25T03:56:10;23.54;43.60
67502;SHT30;54349;52.528;19.760;2023-04-25T03:58:39;23.52;43.60
67502;SHT30;54349;52.528;19.760;2023-04-25T04:01:07;23.52;43.59
67502;SHT30;54349;52.528;19.760;2023-04-25T04:03:37;23.50;43.59
67502;SHT30;54349;52.528;19.760;2023-04-25T04:06:07;23.49;43.60
67502;SHT30;54349;52.528;19.760;2023-04-25T04:08:39;23.48;43.60
67502;SHT30;54349;52.528;19.760;2023-04-25T04:11:09;23.47;43.59
67502;SHT30;54349;52.528;19.760;2023-04-25T04:13:37;23.46;43.58
67502;SHT30;54349;52.528;19.760;2023-04-25T04:16:07;23.44;43.60
67502;SHT30;54349;52.528;19.760;2023-04-25T04:18:36;23.43;43.53
67502;SHT30;54349;52.528;19.760;2023-04-25T04:21:04;23.42;43.51
67502;SHT30;54349;52.528;19.760;2023-04-25T04:23:36;23.40;43.50
67502;SHT30;54349;52.528;19.760;2023-04-25T04:26:07;23.39;43.50
67502;SHT30;54349;52.528;19.760;2023-04-25T04:28:48;23.39;43.48
67502;SHT30;54349;52.528;19.760;2023-04-25T04:31:57;23.37;43.49
67502;SHT30;54349;52.528;19.760;2023-04-25T04:34:25;23.36;43.48
67502;SHT30;54349;52.528;19.760;2023-04-25T04:36:55;23.34;43.44
67502;SHT30;54349;52.528;19.760;2023-04-25T04:39:23;23.33;43.44
67502;SHT30;54349;52.528;19.760;2023-04-25T04:42:04;23.34;43.43
67502;SHT30;54349;52.528;19.760;2023-04-25T04:44:47;23.33;43.47
67502;SHT30;54349;52.528;19.760;2023-04-25T04:47:47;23.32;43.50
67502;SHT30;54349;52.528;19.760;2023-04-25T04:50:36;23.31;43.50
67502;SHT30;54349;52.528;19.760;2023-04-25T04:53:31;23.30;43.60
67502;SHT30;54349;52.528;19.760;2023-04-25T04:56:21;23.28;43.81
67502;SHT30;54349;52.528;19.760;2023-04-25T04:58:55;23.26;43.74
67502;SHT30;54349;52.528;19.760;2023-04-25T05:01:44;23.26;43.64
67502;SHT30;54349;52.528;19.760;2023-04-25T05:04:22;23.24;43.60
67502;SHT30;54349;52.528;19.760;2023-04-25T05:07:05;23.22;43.59
67502;SHT30;54349;52.528;19.760;2023-04-25T05:09:54;23.22;43.56
67502;SHT30;54349;52.528;19.760;2023-04-25T05:13:00;23.21;43.50
67502;SHT30;54349;52.528;19.760;2023-04-25T05:15:37;23.20;43.42
67502;SHT30;54349;52.528;19.760;2023-04-25T05:18:29;23.18;43.39
67502;SHT30;54349;52.528;19.760;2023-04-25T05:21:16;23.17;43.35
67502;SHT30;54349;52.528;19.760;2023-04-25T05:23:55;23.17;43.35
67502;SHT30;54349;52.528;19.760;2023-04-25T05:26:42;23.16;43.30
67502;SHT30;54349;52.528;19.760;2023-04-25T05:29:28;23.16;43.31
67502;SHT30;54349;52.528;19.760;2023-04-25T05:32:15;23.15;43.30
67502;SHT30;54349;52.528;19.760;2023-04-25T05:34:46;23.15;43.31
67502;SHT30;54349;52.528;19.760;2023-04-25T05:37:26;23.15;43.29
67502;SHT30;54349;52.528;19.760;2023-04-25T05:39:58;23.14;43.24
67502;SHT30;54349;52.528;19.760;2023-04-25T05:42:55;23.13;43.23
67502;SHT30;54349;52.528;19.760;2023-04-25T05:45:43;23.12;43.24
67502;SHT30;54349;52.528;19.760;2023-04-25T05:48:26;23.12;43.10
67502;SHT30;54349;52.528;19.760;2023-04-25T05:51:09;23.10;43.04
67502;SHT30;54349;52.528;19.760;2023-04-25T05:53:55;23.08;43.00
67502;SHT30;54349;52.528;19.760;2023-04-25T05:56:24;23.08;42.96
67502;SHT30;54349;52.528;19.760;2023-04-25T05:58:53;23.07;42.90
67502;SHT30;54349;52.528;19.760;2023-04-25T06:01:22;23.07;42.80
67502;SHT30;54349;52.528;19.760;2023-04-25T06:03:51;23.05;42.76
67502;SHT30;54349;52.528;19.760;2023-04-25T06:06:21;23.05;42.69
67502;SHT30;54349;52.528;19.760;2023-04-25T06:08:49;23.04;42.68
67502;SHT30;54349;52.528;19.760;2023-04-25T06:11:18;23.03;42.67
67502;SHT30;54349;52.528;19.760;2023-04-25T06:13:46;23.01;42.60
67502;SHT30;54349;52.528;19.760;2023-04-25T06:16:16;23.01;42.59
67502;SHT30;54349;52.528;19.760;2023-04-25T06:18:45;23.00;42.51
67502;SHT30;54349;52.528;19.760;2023-04-25T06:21:15;22.99;42.50
67502;SHT30;54349;52.528;19.760;2023-04-25T06:23:43;22.97;42.49
67502;SHT30;54349;52.528;19.760;2023-04-25T06:26:18;22.97;42.47
67502;SHT30;54349;52.528;19.760;2023-04-25T06:28:47;22.96;42.35
67502;SHT30;54349;52.528;19.760;2023-04-25T06:31:15;22.94;42.32
67502;SHT30;54349;52.528;19.760;2023-04-25T06:33:44;22.92;42.34
67502;SHT30;54349;52.528;19.760;2023-04-25T06:36:13;22.92;42.32
67502;SHT30;54349;52.528;19.760;2023-04-25T06:38:42;22.93;42.28
67502;SHT30;54349;52.528;19.760;2023-04-25T06:41:11;22.91;42.23
67502;SHT30;54349;52.528;19.760;2023-04-25T06:43:41;22.91;42.24
67502;SHT30;54349;52.528;19.760;2023-04-25T06:46:16;22.91;42.20
67502;SHT30;54349;52.528;19.760;2023-04-25T06:48:45;22.90;42.17
67502;SHT30;54349;52.528;19.760;2023-04-25T06:51:13;22.88;42.17
67502;SHT30;54349;52.528;19.760;2023-04-25T06:53:42;22.88;42.14
67502;SHT30;54349;52.528;19.760;2023-04-25T06:56:17;22.88;42.11
67502;SHT30;54349;52.528;19.760;2023-04-25T06:59:06;22.87;42.10
67502;SHT30;54349;52.528;19.760;2023-04-25T07:01:39;22.86;42.12
67502;SHT30;54349;52.528;19.760;2023-04-25T07:04:16;22.88;42.13
67502;SHT30;54349;52.528;19.760;2023-04-25T07:06:52;22.88;42.13
67502;SHT30;54349;52.528;19.760;2023-04-25T07:09:24;22.89;42.06
67502;SHT30;54349;52.528;19.760;2023-04-25T07:11:52;22.88;41.99
67502;SHT30;54349;52.528;19.760;2023-04-25T07:14:21;22.89;41.92
67502;SHT30;54349;52.528;19.760;2023-04-25T07:16:49;22.88;41.93
67502;SHT30;54349;52.528;19.760;2023-04-25T07:19:17;22.89;41.93
67502;SHT30;54349;52.528;19.760;2023-04-25T07:21:47;22.90;41.89
67502;SHT30;54349;52.528;19.760;2023-04-25T07:24:15;22.90;41.89
67502;SHT30;54349;52.528;19.760;2023-04-25T07:26:45;22.90;41.85
67502;SHT30;54349;52.528;19.760;2023-04-25T07:29:45;22.90;41.80
67502;SHT30;54349;52.528;19.760;2023-04-25T07:32:13;22.90;41.70
67502;SHT30;54349;52.528;19.760;2023-04-25T07:34:43;22.90;41.69
67502;SHT30;54349;52.528;19.760;2023-04-25T07:37:12;22.90;41.70
67502;SHT30;54349;52.528;19.760;2023-04-25T07:39:54;22.90;41.66
67502;SHT30;54349;52.528;19.760;2023-04-25T07:42:22;22.90;41.60
67502;SHT30;54349;52.528;19.760;2023-04-25T07:44:51;22.91;41.60
67502;SHT30;54349;52.528;19.760;2023-04-25T07:47:19;22.91;41.52
67502;SHT30;54349;52.528;19.760;2023-04-25T07:49:48;22.92;41.58
67502;SHT30;54349;52.528;19.760;2023-04-25T07:52:17;22.93;41.55
67502;SHT30;54349;52.528;19.760;2023-04-25T07:54:50;22.94;41.47
67502;SHT30;54349;52.528;19.760;2023-04-25T07:57:22;22.94;41.50
67502;SHT30;54349;52.528;19.760;2023-04-25T07:59:52;22.96;41.35
67502;SHT30;54349;52.528;19.760;2023-04-25T08:02:22;22.96;41.24
67502;SHT30;54349;52.528;19.760;2023-04-25T08:04:50;22.96;41.29
67502;SHT30;54349;52.528;19.760;2023-04-25T08:07:20;22.97;41.31
67502;SHT30;54349;52.528;19.760;2023-04-25T08:09:51;22.99;41.32
67502;SHT30;54349;52.528;19.760;2023-04-25T08:12:26;22.99;41.19
67502;SHT30;54349;52.528;19.760;2023-04-25T08:14:56;22.99;41.22
67502;SHT30;54349;52.528;19.760;2023-04-25T08:17:27;22.99;41.22
67502;SHT30;54349;52.528;19.760;2023-04-25T08:19:55;23.00;41.20
67502;SHT30;54349;52.528;19.760;2023-04-25T08:22:29;22.99;41.19
67502;SHT30;54349;52.528;19.760;2023-04-25T08:25:21;22.99;41.22
67502;SHT30;54349;52.528;19.760;2023-04-25T08:27:50;23.00;41.27
67502;SHT30;54349;52.528;19.760;2023-04-25T08:30:21;23.00;41.28
67502;SHT30;54349;52.528;19.760;2023-04-25T08:32:50;23.01;41.23
67502;SHT30;54349;52.528;19.760;2023-04-25T08:35:38;23.01;41.07
67502;SHT30;54349;52.528;19.760;2023-04-25T08:38:06;23.01;40.98
67502;SHT30;54349;52.528;19.760;2023-04-25T08:40:35;23.01;40.93
67502;SHT30;54349;52.528;19.760;2023-04-25T08:43:13;23.02;40.96
67502;SHT30;54349;52.528;19.760;2023-04-25T08:45:42;23.02;40.90
67502;SHT30;54349;52.528;19.760;2023-04-25T08:48:16;23.02;40.83
67502;SHT30;54349;52.528;19.760;2023-04-25T08:50:49;23.02;40.88
67502;SHT30;54349;52.528;19.760;2023-04-25T08:53:30;23.02;40.86
67502;SHT30;54349;52.528;19.760;2023-04-25T08:56:04;23.02;40.78
67502;SHT30;54349;52.528;19.760;2023-04-25T08:58:35;23.02;40.74
67502;SHT30;54349;52.528;19.760;2023-04-25T09:01:06;23.02;40.73
67502;SHT30;54349;52.528;19.760;2023-04-25T09:03:40;23.01;40.75
67502;SHT30;54349;52.528;19.760;2023-04-25T09:06:12;23.03;40.77
67502;SHT30;54349;52.528;19.760;2023-04-25T09:08:42;23.02;40.64
67502;SHT30;54349;52.528;19.760;2023-04-25T09:11:10;23.02;40.66
67502;SHT30;54349;52.528;19.760;2023-04-25T09:13:40;23.02;40.57
67502;SHT30;54349;52.528;19.760;2023-04-25T09:16:31;23.03;40.59
67502;SHT30;54349;52.528;19.760;2023-04-25T09:19:22;23.02;40.54
67502;SHT30;54349;52.528;19.760;2023-04-25T09:22:10;23.03;40.55
67502;SHT30;54349;52.528;19.760;2023-04-25T09:24:39;23.02;40.56
67502;SHT30;54349;52.528;19.760;2023-04-25T09:27:12;23.04;40.55
67502;SHT30;54349;52.528;19.760;2023-04-25T09:29:49;23.04;40.51
67502;SHT30;54349;52.528;19.760;2023-04-25T09:32:39;23.05;40.37
67502;SHT30;54349;52.528;19.760;2023-04-25T09:35:10;23.05;40.28
67502;SHT30;54349;52.528;19.760;2023-04-25T09:37:40;23.05;40.19
67502;SHT30;54349;52.528;19.760;2023-04-25T09:40:27;23.05;40.10
67502;SHT30;54349;52.528;19.760;2023-04-25T09:43:10;23.05;40.05
67502;SHT30;54349;52.528;19.760;2023-04-25T09:45:50;23.05;40.05
67502;SHT30;54349;52.528;19.760;2023-04-25T09:48:26;23.04;40.03
67502;SHT30;54349;52.528;19.760;2023-04-25T09:51:08;23.05;39.99
67502;SHT30;54349;52.528;19.760;2023-04-25T09:53:46;23.05;39.99
67502;SHT30;54349;52.528;19.760;2023-04-25T09:56:39;23.05;39.96
67502;SHT30;54349;52.528;19.760;2023-04-25T09:59:09;23.07;39.99
67502;SHT30;54349;52.528;19.760;2023-04-25T10:01:40;23.07;40.00
67502;SHT30;54349;52.528;19.760;2023-04-25T10:04:22;23.08;39.95
67502;SHT30;54349;52.528;19.760;2023-04-25T10:07:08;23.10;39.81
67502;SHT30;54349;52.528;19.760;2023-04-25T10:09:37;23.10;39.77
67502;SHT30;54349;52.528;19.760;2023-04-25T10:12:08;23.10;39.65
67502;SHT30;54349;52.528;19.760;2023-04-25T10:14:37;23.11;39.56
67502;SHT30;54349;52.528;19.760;2023-04-25T10:17:06;23.12;39.62
67502;SHT30;54349;52.528;19.760;2023-04-25T10:19:38;23.12;39.55
67502;SHT30;54349;52.528;19.760;2023-04-25T10:22:17;23.13;39.58
67502;SHT30;54349;52.528;19.760;2023-04-25T10:24:57;23.14;39.55
67502;SHT30;54349;52.528;19.760;2023-04-25T10:27:30;23.14;39.47
67502;SHT30;54349;52.528;19.760;2023-04-25T10:30:02;23.15;39.54
67502;SHT30;54349;52.528;19.760;2023-04-25T10:32:41;23.16;39.30
67502;SHT30;54349;52.528;19.760;2023-04-25T10:37:59;23.18;39.26
67502;SHT30;54349;52.528;19.760;2023-04-25T10:40:37;23.18;39.32
67502;SHT30;54349;52.528;19.760;2023-04-25T10:45:59;23.19;39.32
67502;SHT30;54349;52.528;19.760;2023-04-25T10:48:29;23.18;39.33
67502;SHT30;54349;52.528;19.760;2023-04-25T10:51:08;23.18;39.41
67502;SHT30;54349;52.528;19.760;2023-04-25T10:53:38;23.18;39.31
67502;SHT30;54349;52.528;19.760;2023-04-25T10:56:17;23.18;39.18
67502;SHT30;54349;52.528;19.760;2023-04-25T10:58:50;23.19;39.13
67502;SHT30;54349;52.528;19.760;2023-04-25T11:01:21;23.19;39.10
67502;SHT30;54349;52.528;19.760;2023-04-25T11:03:57;23.18;38.90
67502;SHT30;54349;52.528;19.760;2023-04-25T11:06:29;23.19;38.94
67502;SHT30;54349;52.528;19.760;2023-04-25T11:09:35;23.19;38.96
67502;SHT30;54349;52.528;19.760;2023-04-25T11:12:08;23.20;38.99
67502;SHT30;54349;52.528;19.760;2023-04-25T11:14:39;23.20;38.98
67502;SHT30;54349;52.528;19.760;2023-04-25T11:17:09;23.21;38.82
67502;SHT30;54349;52.528;19.760;2023-04-25T11:19:39;23.21;38.91
67502;SHT30;54349;52.528;19.760;2023-04-25T11:22:07;23.20;38.74
67502;SHT30;54349;52.528;19.760;2023-04-25T11:24:35;23.19;38.65
67502;SHT30;54349;52.528;19.760;2023-04-25T11:27:04;23.18;38.62
67502;SHT30;54349;52.528;19.760;2023-04-25T11:29:35;23.17;38.67
67502;SHT30;54349;52.528;19.760;2023-04-25T11:32:04;23.17;38.63
67502;SHT30;54349;52.528;19.760;2023-04-25T11:34:33;23.16;38.65
67502;SHT30;54349;52.528;19.760;2023-04-25T11:37:02;23.16;38.57
67502;SHT30;54349;52.528;19.760;2023-04-25T11:39:30;23.16;38.49
67502;SHT30;54349;52.528;19.760;2023-04-25T11:41:59;23.15;38.53
67502;SHT30;54349;52.528;19.760;2023-04-25T11:44:32;23.15;38.52
67502;SHT30;54349;52.528;19.760;2023-04-25T11:47:01;23.16;38.55
67502;SHT30;54349;52.528;19.760;2023-04-25T11:49:30;23.16;38.56
67502;SHT30;54349;52.528;19.760;2023-04-25T11:51:59;23.17;38.45
67502;SHT30;54349;52.528;19.760;2023-04-25T11:54:28;23.17;38.34
67502;SHT30;54349;52.528;19.760;2023-04-25T11:56:56;23.15;38.30
67502;SHT30;54349;52.528;19.760;2023-04-25T11:59:25;23.16;38.36
67502;SHT30;54349;52.528;19.760;2023-04-25T12:01:54;23.15;38.33
67502;SHT30;54349;52.528;19.760;2023-04-25T12:04:22;23.16;38.26
67502;SHT30;54349;52.528;19.760;2023-04-25T12:06:53;23.17;38.23
67502;SHT30;54349;52.528;19.760;2023-04-25T12:09:29;23.16;38.25
67502;SHT30;54349;52.528;19.760;2023-04-25T12:12:00;23.17;38.17
67502;SHT30;54349;52.528;19.760;2023-04-25T12:14:34;23.17;38.15
67502;SHT30;54349;52.528;19.760;2023-04-25T12:17:03;23.17;38.25
67502;SHT30;54349;52.528;19.760;2023-04-25T12:19:37;23.17;38.23
67502;SHT30;54349;52.528;19.760;2023-04-25T12:22:21;23.18;38.32
67502;SHT30;54349;52.528;19.760;2023-04-25T12:24:50;23.18;38.34
67502;SHT30;54349;52.528;19.760;2023-04-25T12:27:20;23.17;38.29
67502;SHT30;54349;52.528;19.760;2023-04-25T12:29:55;23.18;38.24
67502;SHT30;54349;52.528;19.760;2023-04-25T12:32:24;23.18;38.25
67502;SHT30;54349;52.528;19.760;2023-04-25T12:34:54;23.20;38.16
67502;SHT30;54349;52.528;19.760;2023-04-25T12:37:22;23.20;38.12
67502;SHT30;54349;52.528;19.760;2023-04-25T12:39:50;23.21;37.97
67502;SHT30;54349;52.528;19.760;2023-04-25T12:42:19;23.21;37.98
67502;SHT30;54349;52.528;19.760;2023-04-25T12:44:47;23.22;37.94
67502;SHT30;54349;52.528;19.760;2023-04-25T12:47:15;23.22;37.81
67502;SHT30;54349;52.528;19.760;2023-04-25T12:49:44;23.22;37.82
67502;SHT30;54349;52.528;19.760;2023-04-25T12:52:12;23.21;37.67
67502;SHT30;54349;52.528;19.760;2023-04-25T12:54:39;23.21;37.61
67502;SHT30;54349;52.528;19.760;2023-04-25T12:57:08;23.20;37.69
67502;SHT30;54349;52.528;19.760;2023-04-25T12:59:36;23.20;37.80
67502;SHT30;54349;52.528;19.760;2023-04-25T13:02:05;23.19;37.72
67502;SHT30;54349;52.528;19.760;2023-04-25T13:04:33;23.18;37.73
67502;SHT30;54349;52.528;19.760;2023-04-25T13:07:02;23.18;37.74
67502;SHT30;54349;52.528;19.760;2023-04-25T13:09:31;23.18;37.82
67502;SHT30;54349;52.528;19.760;2023-04-25T13:11:59;23.17;38.01
67502;SHT30;54349;52.528;19.760;2023-04-25T13:14:27;23.17;38.06
67502;SHT30;54349;52.528;19.760;2023-04-25T13:16:55;23.16;38.07
67502;SHT30;54349;52.528;19.760;2023-04-25T13:19:23;23.15;38.10
67502;SHT30;54349;52.528;19.760;2023-04-25T13:21:52;23.16;38.05
67502;SHT30;54349;52.528;19.760;2023-04-25T13:24:20;23.15;38.05
67502;SHT30;54349;52.528;19.760;2023-04-25T13:26:49;23.14;38.07
67502;SHT30;54349;52.528;19.760;2023-04-25T13:29:17;23.14;38.07
67502;SHT30;54349;52.528;19.760;2023-04-25T13:31:45;23.13;38.09
67502;SHT30;54349;52.528;19.760;2023-04-25T13:34:13;23.13;38.16
67502;SHT30;54349;52.528;19.760;2023-04-25T13:36:42;23.13;38.19
67502;SHT30;54349;52.528;19.760;2023-04-25T13:39:10;23.12;38.26
67502;SHT30;54349;52.528;19.760;2023-04-25T13:41:39;23.12;38.31
67502;SHT30;54349;52.528;19.760;2023-04-25T13:44:07;23.12;38.39
67502;SHT30;54349;52.528;19.760;2023-04-25T13:46:35;23.12;38.37
67502;SHT30;54349;52.528;19.760;2023-04-25T13:49:07;23.12;38.42
67502;SHT30;54349;52.528;19.760;2023-04-25T13:51:40;23.11;38.43
67502;SHT30;54349;52.528;19.760;2023-04-25T13:54:09;23.10;38.43
67502;SHT30;54349;52.528;19.760;2023-04-25T13:56:38;23.10;38.33
67502;SHT30;54349;52.528;19.760;2023-04-25T13:59:06;23.09;38.40
67502;SHT30;54349;52.528;19.760;2023-04-25T14:01:34;23.07;38.39
67502;SHT30;54349;52.528;19.760;2023-04-25T14:04:04;23.07;38.38
67502;SHT30;54349;52.528;19.760;2023-04-25T14:06:32;23.07;38.37
67502;SHT30;54349;52.528;19.760;2023-04-25T14:09:02;23.07;38.38
67502;SHT30;54349;52.528;19.760;2023-04-25T14:11:33;23.05;38.39
67502;SHT30;54349;52.528;19.760;2023-04-25T14:14:01;23.04;38.38
67502;SHT30;54349;52.528;19.760;2023-04-25T14:16:30;23.05;38.47
67502;SHT30;54349;52.528;19.760;2023-04-25T14:18:59;23.04;38.50
67502;SHT30;54349;52.528;19.760;2023-04-25T14:21:28;23.04;38.46
67502;SHT30;54349;52.528;19.760;2023-04-25T14:23:59;23.02;38.50
67502;SHT30;54349;52.528;19.760;2023-04-25T14:26:27;23.01;38.54
67502;SHT30;54349;52.528;19.760;2023-04-25T14:28:56;23.01;38.58
67502;SHT30;54349;52.528;19.760;2023-04-25T14:31:24;23.00;38.51
67502;SHT30;54349;52.528;19.760;2023-04-25T14:33:52;22.99;38.48
67502;SHT30;54349;52.528;19.760;2023-04-25T14:36:26;22.99;38.50
67502;SHT30;54349;52.528;19.760;2023-04-25T14:38:56;22.98;38.48
67502;SHT30;54349;52.528;19.760;2023-04-25T14:41:25;22.97;38.48
67502;SHT30;54349;52.528;19.760;2023-04-25T14:43:53;22.96;38.50
67502;SHT30;54349;52.528;19.760;2023-04-25T14:46:22;22.96;38.48
67502;SHT30;54349;52.528;19.760;2023-04-25T14:48:51;22.96;38.43
67502;SHT30;54349;52.528;19.760;2023-04-25T14:51:20;22.94;38.43
67502;SHT30;54349;52.528;19.760;2023-04-25T14:53:48;22.94;38.46
67502;SHT30;54349;52.528;19.760;2023-04-25T14:56:18;22.93;38.47
67502;SHT30;54349;52.528;19.760;2023-04-25T14:58:47;22.92;38.50
67502;SHT30;54349;52.528;19.760;2023-04-25T15:01:15;22.92;38.51
67502;SHT30;54349;52.528;19.760;2023-04-25T15:03:44;22.92;38.57
67502;SHT30;54349;52.528;19.760;2023-04-25T15:06:13;22.90;38.54
67502;SHT30;54349;52.528;19.760;2023-04-25T15:08:44;22.90;38.55
67502;SHT30;54349;52.528;19.760;2023-04-25T15:11:12;22.89;38.52
67502;SHT30;54349;52.528;19.760;2023-04-25T15:13:40;22.88;38.55
67502;SHT30;54349;52.528;19.760;2023-04-25T15:16:08;22.87;38.60
67502;SHT30;54349;52.528;19.760;2023-04-25T15:18:37;22.87;38.98
67502;SHT30;54349;52.528;19.760;2023-04-25T15:21:06;22.88;39.20
67502;SHT30;54349;52.528;19.760;2023-04-25T15:23:35;22.87;39.12
67502;SHT30;54349;52.528;19.760;2023-04-25T15:26:03;22.86;39.09
67502;SHT30;54349;52.528;19.760;2023-04-25T15:28:31;22.85;39.00
67502;SHT30;54349;52.528;19.760;2023-04-25T15:31:01;22.85;38.96
67502;SHT30;54349;52.528;19.760;2023-04-25T15:33:29;22.83;39.00
67502;SHT30;54349;52.528;19.760;2023-04-25T15:35:57;22.83;39.00
67502;SHT30;54349;52.528;19.760;2023-04-25T15:38:26;22.82;38.99
67502;SHT30;54349;52.528;19.760;2023-04-25T15:40:54;22.81;39.07
67502;SHT30;54349;52.528;19.760;2023-04-25T15:43:22;22.80;39.07
67502;SHT30;54349;52.528;19.760;2023-04-25T15:45:51;22.79;39.06
67502;SHT30;54349;52.528;19.760;2023-04-25T15:48:19;22.78;39.01
67502;SHT30;54349;52.528;19.760;2023-04-25T15:50:48;22.77;39.03